sensor_id;sensor_type;location;lat;lon;timestamp;temperature;humidity
25328;DHT22;13279;51.300;12.394;2023-12-20T00:02:27;5.20;99.90
25328;DHT22;13279;51.300;12.394;2023-12-20T00:04:55;5.20;99.90
25328;DHT22;13279;51.300;12.394;2023-12-20T00:07:22;5.20;99.90
25328;DHT22;13279;51.300;12.394;2023-12-20T00:09:51;5.10;99.90
25328;DHT22;13279;51.300;12.394;2023-12-20T00:12:19;5.10;99.90
25328;DHT22;13279;51.300;12.394;2023-12-20T00:14:46;5.20;99.90
25328;DHT22;13279;51.300;12.394;2023-12-20T00:17:13;5.10;99.90
25328;DHT22;13279;51.300;12.394;2023-12-20T00:19:40;5.10;99.90
25328;DHT22;13279;51.300;12.394;2023-12-20T00:22:08;5.10;99.90
25328;DHT22;13279;51.300;12.394;2023-12-20T00:24:35;5.10;99.90
25328;DHT22;13279;51.300;12.394;2023-12-20T00:27:05;5.10;99.90
25328;DHT22;13279;51.300;12.394;2023-12-20T00:29:32;5.10;99.90
25328;DHT22;13279;51.300;12.394;2023-12-20T00:32:00;5.10;99.90
25328;DHT22;13279;51.300;12.394;2023-12-20T00:34:28;5.10;99.90
25328;DHT22;13279;51.300;12.394;2023-12-20T00:36:55;5.10;99.90
25328;DHT22;13279;51.300;12.394;2023-12-20T00:39:23;5.10;99.90
25328;DHT22;13279;51.300;12.394;2023-12-20T00:41:50;5.10;99.90
25328;DHT22;13279;51.300;12.394;2023-12-20T00:44:19;5.10;99.90
25328;DHT22;13279;51.300;12.394;2023-12-20T00:46:47;5.00;99.90
25328;DHT22;13279;51.300;12.394;2023-12-20T00:49:14;5.10;99.90
25328;DHT22;13279;51.300;12.394;2023-12-20T00:51:42;5.10;99.90
25328;DHT22;13279;51.300;12.394;2023-12-20T00:54:09;5.10;99.90
25328;DHT22;13279;51.300;12.394;2023-12-20T00:56:36;5.10;99.90
25328;DHT22;13279;51.300;12.394;2023-12-20T00:59:04;5.10;99.90
25328;DHT22;13279;51.300;12.394;2023-12-20T01:01:33;5.10;99.90
25328;DHT22;13279;51.300;12.394;2023-12-20T01:04:01;5.10;99.90
25328;DHT22;13279;51.300;12.394;2023-12-20T01:06:28;5.00;99.90
25328;DHT22;13279;51.300;12.394;2023-12-20T01:08:56;5.10;99.90
25328;DHT22;13279;51.300;12.394;2023-12-20T01:11:24;5.00;99.90
25328;DHT22;13279;51.300;12.394;2023-12-20T01:13:51;5.10;99.90
25328;DHT22;13279;51.300;12.394;2023-12-20T01:16:19;5.10;99.90
25328;DHT22;13279;51.300;12.394;2023-12-20T01:18:48;5.10;99.90
25328;DHT22;13279;51.300;12.394;2023-12-20T01:21:16;5.10;99.90
25328;DHT22;13279;51.300;12.394;2023-12-20T01:23:43;5.10;99.90
25328;DHT22;13279;51.300;12.394;2023-12-20T01:26:11;5.10;99.90
25328;DHT22;13279;51.300;12.394;2023-12-20T01:28:39;5.10;99.90
25328;DHT22;13279;51.300;12.394;2023-12-20T01:31:06;5.00;99.90
25328;DHT22;13279;51.300;12.394;2023-12-20T01:33:34;5.00;99.90
25328;DHT22;13279;51.300;12.394;2023-12-20T01:36:04;5.00;99.90
25328;DHT22;13279;51.300;12.394;2023-12-20T01:38:32;5.00;99.90
25328;DHT22;13279;51.300;12.394;2023-12-20T01:41:00;5.10;99.90
25328;DHT22;13279;51.300;12.394;2023-12-20T01:43:27;5.00;99.90
25328;DHT22;13279;51.300;12.394;2023-12-20T01:45:56;5.00;99.90
25328;DHT22;13279;51.300;12.394;2023-12-20T01:48:24;5.10;99.90
25328;DHT22;13279;51.300;12.394;2023-12-20T01:50:52;5.10;99.90
25328;DHT22;13279;51.300;12.394;2023-12-20T01:53:23;5.00;99.90
25328;DHT22;13279;51.300;12.394;2023-12-20T01:55:55;5.00;99.90
25328;DHT22;13279;51.300;12.394;2023-12-20T01:58:23;5.00;99.90
25328;DHT22;13279;51.300;12.394;2023-12-20T02:00:50;5.00;99.90
25328;DHT22;13279;51.300;12.394;2023-12-20T02:03:18;5.00;99.90
25328;DHT22;13279;51.300;12.394;2023-12-20T02:05:47;5.00;99.90
25328;DHT22;13279;51.300;12.394;2023-12-20T02:08:15;5.00;99.90
25328;DHT22;13279;51.300;12.394;2023-12-20T02:10:44;5.00;99.90
25328;DHT22;13279;51.300;12.394;2023-12-20T02:13:12;5.10;99.90
25328;DHT22;13279;51.300;12.394;2023-12-20T02:15:39;5.00;99.90
25328;DHT22;13279;51.300;12.394;2023-12-20T02:18:09;5.10;99.90
25328;DHT22;13279;51.300;12.394;2023-12-20T02:20:40;5.00;99.90
25328;DHT22;13279;51.300;12.394;2023-12-20T02:23:09;5.00;99.90
25328;DHT22;13279;51.300;12.394;2023-12-20T02:25:36;5.00;99.90
25328;DHT22;13279;51.300;12.394;2023-12-20T02:28:05;5.00;99.90
25328;DHT22;13279;51.300;12.394;2023-12-20T02:30:33;5.00;99.90
25328;DHT22;13279;51.300;12.394;2023-12-20T02:33:01;5.00;99.90
25328;DHT22;13279;51.300;12.394;2023-12-20T02:35:31;5.00;99.90
25328;DHT22;13279;51.300;12.394;2023-12-20T02:37:58;5.00;99.90
25328;DHT22;13279;51.300;12.394;2023-12-20T02:40:27;5.00;99.90
25328;DHT22;13279;51.300;12.394;2023-12-20T02:42:55;5.00;99.90
25328;DHT22;13279;51.300;12.394;2023-12-20T02:45:22;5.00;99.90
25328;DHT22;13279;51.300;12.394;2023-12-20T02:47:50;5.00;99.90
25328;DHT22;13279;51.300;12.394;2023-12-20T02:50:17;5.00;99.90
25328;DHT22;13279;51.300;12.394;2023-12-20T02:52:45;5.00;99.90
25328;DHT22;13279;51.300;12.394;2023-12-20T02:55:13;5.00;99.90
25328;DHT22;13279;51.300;12.394;2023-12-20T02:57:42;5.00;99.90
25328;DHT22;13279;51.300;12.394;2023-12-20T03:00:10;5.00;99.90
25328;DHT22;13279;51.300;12.394;2023-12-20T03:02:37;5.00;99.90
25328;DHT22;13279;51.300;12.394;2023-12-20T03:05:06;5.00;99.90
25328;DHT22;13279;51.300;12.394;2023-12-20T03:07:33;5.00;99.90
25328;DHT22;13279;51.300;12.394;2023-12-20T03:10:01;5.00;99.90
25328;DHT22;13279;51.300;12.394;2023-12-20T03:12:29;5.00;99.90
25328;DHT22;13279;51.300;12.394;2023-12-20T03:14:58;5.00;99.90
25328;DHT22;13279;51.300;12.394;2023-12-20T03:17:25;5.00;99.90
25328;DHT22;13279;51.300;12.394;2023-12-20T03:19:53;5.00;99.90
25328;DHT22;13279;51.300;12.394;2023-12-20T03:22:21;5.00;99.90
25328;DHT22;13279;51.300;12.394;2023-12-20T03:24:49;5.00;99.90
25328;DHT22;13279;51.300;12.394;2023-12-20T03:27:16;5.00;99.90
25328;DHT22;13279;51.300;12.394;2023-12-20T03:29:44;5.00;99.90
25328;DHT22;13279;51.300;12.394;2023-12-20T03:32:13;5.00;99.90
25328;DHT22;13279;51.300;12.394;2023-12-20T03:34:40;5.00;99.90
25328;DHT22;13279;51.300;12.394;2023-12-20T03:37:08;5.00;99.90
25328;DHT22;13279;51.300;12.394;2023-12-20T03:39:35;5.00;99.90
25328;DHT22;13279;51.300;12.394;2023-12-20T03:42:04;5.00;99.90
25328;DHT22;13279;51.300;12.394;2023-12-20T03:44:31;5.00;99.90
25328;DHT22;13279;51.300;12.394;2023-12-20T03:46:59;5.00;99.90
25328;DHT22;13279;51.300;12.394;2023-12-20T03:49:28;5.00;99.90
25328;DHT22;13279;51.300;12.394;2023-12-20T03:51:55;5.00;99.90
25328;DHT22;13279;51.300;12.394;2023-12-20T03:54:23;5.00;99.90
25328;DHT22;13279;51.300;12.394;2023-12-20T03:56:51;5.00;99.90
25328;DHT22;13279;51.300;12.394;2023-12-20T03:59:18;5.00;99.90
25328;DHT22;13279;51.300;12.394;2023-12-20T04:01:46;5.00;99.90
25328;DHT22;13279;51.300;12.394;2023-12-20T04:04:13;5.00;99.90
25328;DHT22;13279;51.300;12.394;2023-12-20T04:06:42;5.00;99.90
25328;DHT22;13279;51.300;12.394;2023-12-20T04:09:10;5.00;99.90
25328;DHT22;13279;51.300;12.394;2023-12-20T04:11:37;5.00;99.90
25328;DHT22;13279;51.300;12.394;2023-12-20T04:14:05;5.00;99.90
25328;DHT22;13279;51.300;12.394;2023-12-20T04:16:33;5.00;99.90
25328;DHT22;13279;51.300;12.394;2023-12-20T04:19:00;5.00;99.90
25328;DHT22;13279;51.300;12.394;2023-12-20T04:21:28;5.10;99.90
25328;DHT22;13279;51.300;12.394;2023-12-20T04:23:57;5.10;99.90
25328;DHT22;13279;51.300;12.394;2023-12-20T04:26:24;5.10;99.90
25328;DHT22;13279;51.300;12.394;2023-12-20T04:28:52;5.10;99.90
25328;DHT22;13279;51.300;12.394;2023-12-20T04:31:19;5.10;99.90
25328;DHT22;13279;51.300;12.394;2023-12-20T04:33:46;5.10;99.90
25328;DHT22;13279;51.300;12.394;2023-12-20T04:36:13;5.10;99.90
25328;DHT22;13279;51.300;12.394;2023-12-20T04:38:41;5.10;99.90
25328;DHT22;13279;51.300;12.394;2023-12-20T04:41:10;5.10;99.90
25328;DHT22;13279;51.300;12.394;2023-12-20T04:43:42;5.10;99.90
25328;DHT22;13279;51.300;12.394;2023-12-20T04:46:09;5.10;99.90
25328;DHT22;13279;51.300;12.394;2023-12-20T04:48:37;5.10;99.90
25328;DHT22;13279;51.300;12.394;2023-12-20T04:51:04;5.10;99.90
25328;DHT22;13279;51.300;12.394;2023-12-20T04:53:32;5.10;99.90
25328;DHT22;13279;51.300;12.394;2023-12-20T04:55:59;5.10;99.90
25328;DHT22;13279;51.300;12.394;2023-12-20T04:58:28;5.10;99.90
25328;DHT22;13279;51.300;12.394;2023-12-20T05:00:55;5.10;99.90
25328;DHT22;13279;51.300;12.394;2023-12-20T05:03:22;5.10;99.90
25328;DHT22;13279;51.300;12.394;2023-12-20T05:05:50;5.10;99.90
25328;DHT22;13279;51.300;12.394;2023-12-20T05:08:17;5.10;99.90
25328;DHT22;13279;51.300;12.394;2023-12-20T05:10:44;5.10;99.90
25328;DHT22;13279;51.300;12.394;2023-12-20T05:13:12;5.20;99.90
25328;DHT22;13279;51.300;12.394;2023-12-20T05:15:41;5.10;99.90
25328;DHT22;13279;51.300;12.394;2023-12-20T05:18:08;5.20;99.90
25328;DHT22;13279;51.300;12.394;2023-12-20T05:20:36;5.20;99.90
25328;DHT22;13279;51.300;12.394;2023-12-20T05:23:03;5.20;99.90
25328;DHT22;13279;51.300;12.394;2023-12-20T05:25:31;5.20;99.90
25328;DHT22;13279;51.300;12.394;2023-12-20T05:27:58;5.20;99.90
25328;DHT22;13279;51.300;12.394;2023-12-20T05:30:26;5.20;99.90
25328;DHT22;13279;51.300;12.394;2023-12-20T05:32:55;5.20;99.90
25328;DHT22;13279;51.300;12.394;2023-12-20T05:35:22;5.20;99.90
25328;DHT22;13279;51.300;12.394;2023-12-20T05:37:50;5.20;99.90
25328;DHT22;13279;51.300;12.394;2023-12-20T05:40:17;5.20;99.90
25328;DHT22;13279;51.300;12.394;2023-12-20T05:42:45;5.30;99.90
25328;DHT22;13279;51.300;12.394;2023-12-20T05:45:12;5.30;99.90
25328;DHT22;13279;51.300;12.394;2023-12-20T05:47:40;5.30;99.90
25328;DHT22;13279;51.300;12.394;2023-12-20T05:50:09;5.20;99.90
25328;DHT22;13279;51.300;12.394;2023-12-20T05:52:36;5.20;99.90
25328;DHT22;13279;51.300;12.394;2023-12-20T05:55:04;5.20;99.90
25328;DHT22;13279;51.300;12.394;2023-12-20T05:57:31;5.20;99.90
25328;DHT22;13279;51.300;12.394;2023-12-20T05:59:58;5.20;99.90
25328;DHT22;13279;51.300;12.394;2023-12-20T06:02:26;5.20;99.90
25328;DHT22;13279;51.300;12.394;2023-12-20T06:04:53;5.10;99.90
25328;DHT22;13279;51.300;12.394;2023-12-20T06:07:22;5.10;99.90
25328;DHT22;13279;51.300;12.394;2023-12-20T06:09:49;5.10;99.90
25328;DHT22;13279;51.300;12.394;2023-12-20T06:12:17;5.10;99.90
25328;DHT22;13279;51.300;12.394;2023-12-20T06:14:44;5.00;99.90
25328;DHT22;13279;51.300;12.394;2023-12-20T06:17:12;5.00;99.90
25328;DHT22;13279;51.300;12.394;2023-12-20T06:19:39;5.00;99.90
25328;DHT22;13279;51.300;12.394;2023-12-20T06:22:08;5.00;99.90
25328;DHT22;13279;51.300;12.394;2023-12-20T06:24:38;5.00;99.90
25328;DHT22;13279;51.300;12.394;2023-12-20T06:27:05;5.00;99.90
25328;DHT22;13279;51.300;12.394;2023-12-20T06:29:32;5.00;99.90
25328;DHT22;13279;51.300;12.394;2023-12-20T06:32:01;5.00;99.90
25328;DHT22;13279;51.300;12.394;2023-12-20T06:34:28;5.00;99.90
25328;DHT22;13279;51.300;12.394;2023-12-20T06:36:55;4.90;99.90
25328;DHT22;13279;51.300;12.394;2023-12-20T06:39:23;4.90;99.90
25328;DHT22;13279;51.300;12.394;2023-12-20T06:41:52;4.80;99.90
25328;DHT22;13279;51.300;12.394;2023-12-20T06:44:19;4.80;99.90
25328;DHT22;13279;51.300;12.394;2023-12-20T06:46:47;4.80;99.90
25328;DHT22;13279;51.300;12.394;2023-12-20T06:49:14;4.80;99.90
25328;DHT22;13279;51.300;12.394;2023-12-20T06:51:42;4.80;99.90
25328;DHT22;13279;51.300;12.394;2023-12-20T06:54:09;4.90;99.90
25328;DHT22;13279;51.300;12.394;2023-12-20T06:56:37;4.90;99.90
25328;DHT22;13279;51.300;12.394;2023-12-20T06:59:06;4.90;99.90
25328;DHT22;13279;51.300;12.394;2023-12-20T07:01:33;4.90;99.90
25328;DHT22;13279;51.300;12.394;2023-12-20T07:04:01;5.00;99.90
25328;DHT22;13279;51.300;12.394;2023-12-20T07:06:29;5.00;99.90
25328;DHT22;13279;51.300;12.394;2023-12-20T07:08:56;4.90;99.90
25328;DHT22;13279;51.300;12.394;2023-12-20T07:11:24;4.90;99.90
25328;DHT22;13279;51.300;12.394;2023-12-20T07:13:52;4.90;99.90
25328;DHT22;13279;51.300;12.394;2023-12-20T07:16:23;4.90;99.90
25328;DHT22;13279;51.300;12.394;2023-12-20T07:18:50;4.80;99.90
25328;DHT22;13279;51.300;12.394;2023-12-20T07:21:18;4.80;99.90
25328;DHT22;13279;51.300;12.394;2023-12-20T07:23:46;4.70;99.90
25328;DHT22;13279;51.300;12.394;2023-12-20T07:26:14;4.70;99.90
25328;DHT22;13279;51.300;12.394;2023-12-20T07:28:42;4.70;99.90
25328;DHT22;13279;51.300;12.394;2023-12-20T07:31:09;4.70;99.90
25328;DHT22;13279;51.300;12.394;2023-12-20T07:33:39;4.70;99.90
25328;DHT22;13279;51.300;12.394;2023-12-20T07:36:06;4.70;99.90
25328;DHT22;13279;51.300;12.394;2023-12-20T07:38:35;4.70;99.90
25328;DHT22;13279;51.300;12.394;2023-12-20T07:41:02;4.80;99.90
25328;DHT22;13279;51.300;12.394;2023-12-20T07:43:30;4.80;99.90
25328;DHT22;13279;51.300;12.394;2023-12-20T07:46:01;4.80;99.90
25328;DHT22;13279;51.300;12.394;2023-12-20T07:48:31;4.90;99.90
25328;DHT22;13279;51.300;12.394;2023-12-20T07:50:59;4.90;99.90
25328;DHT22;13279;51.300;12.394;2023-12-20T07:53:27;5.00;99.90
25328;DHT22;13279;51.300;12.394;2023-12-20T07:55:55;5.00;99.90
25328;DHT22;13279;51.300;12.394;2023-12-20T07:58:23;5.10;99.90
25328;DHT22;13279;51.300;12.394;2023-12-20T08:00:50;5.10;99.90
25328;DHT22;13279;51.300;12.394;2023-12-20T08:03:18;5.10;99.90
25328;DHT22;13279;51.300;12.394;2023-12-20T08:05:45;5.10;99.90
25328;DHT22;13279;51.300;12.394;2023-12-20T08:08:14;5.10;99.90
25328;DHT22;13279;51.300;12.394;2023-12-20T08:10:41;5.10;99.90
25328;DHT22;13279;51.300;12.394;2023-12-20T08:13:09;5.10;99.90
25328;DHT22;13279;51.300;12.394;2023-12-20T08:15:36;5.10;99.90
25328;DHT22;13279;51.300;12.394;2023-12-20T08:18:04;5.10;99.90
25328;DHT22;13279;51.300;12.394;2023-12-20T08:20:31;5.10;99.90
25328;DHT22;13279;51.300;12.394;2023-12-20T08:22:59;5.10;99.90
25328;DHT22;13279;51.300;12.394;2023-12-20T08:25:28;5.10;99.90
25328;DHT22;13279;51.300;12.394;2023-12-20T08:27:56;5.20;99.90
25328;DHT22;13279;51.300;12.394;2023-12-20T08:30:23;5.20;99.90
25328;DHT22;13279;51.300;12.394;2023-12-20T08:32:51;5.20;99.90
25328;DHT22;13279;51.300;12.394;2023-12-20T08:35:18;5.30;99.90
25328;DHT22;13279;51.300;12.394;2023-12-20T08:37:46;5.40;99.90
25328;DHT22;13279;51.300;12.394;2023-12-20T08:40:14;5.40;99.90
25328;DHT22;13279;51.300;12.394;2023-12-20T08:42:43;5.60;99.90
25328;DHT22;13279;51.300;12.394;2023-12-20T08:45:10;5.70;99.90
25328;DHT22;13279;51.300;12.394;2023-12-20T08:47:38;5.90;99.90
25328;DHT22;13279;51.300;12.394;2023-12-20T08:50:07;6.00;99.90
25328;DHT22;13279;51.300;12.394;2023-12-20T08:52:35;5.90;99.90
25328;DHT22;13279;51.300;12.394;2023-12-20T08:55:02;5.90;99.90
25328;DHT22;13279;51.300;12.394;2023-12-20T08:57:30;5.90;99.90
25328;DHT22;13279;51.300;12.394;2023-12-20T08:59:59;5.90;99.90
25328;DHT22;13279;51.300;12.394;2023-12-20T09:02:27;5.90;99.90
25328;DHT22;13279;51.300;12.394;2023-12-20T09:04:54;5.90;99.90
25328;DHT22;13279;51.300;12.394;2023-12-20T09:07:23;5.90;99.90
25328;DHT22;13279;51.300;12.394;2023-12-20T09:09:50;5.80;99.90
25328;DHT22;13279;51.300;12.394;2023-12-20T09:12:18;5.90;99.90
25328;DHT22;13279;51.300;12.394;2023-12-20T09:14:46;5.90;99.90
25328;DHT22;13279;51.300;12.394;2023-12-20T09:17:15;6.10;99.90
25328;DHT22;13279;51.300;12.394;2023-12-20T09:19:42;6.30;99.90
25328;DHT22;13279;51.300;12.394;2023-12-20T09:22:11;6.50;99.90
25328;DHT22;13279;51.300;12.394;2023-12-20T09:24:39;6.60;99.90
25328;DHT22;13279;51.300;12.394;2023-12-20T09:27:06;6.50;99.90
25328;DHT22;13279;51.300;12.394;2023-12-20T09:29:34;6.50;99.90
25328;DHT22;13279;51.300;12.394;2023-12-20T09:32:01;6.40;99.90
25328;DHT22;13279;51.300;12.394;2023-12-20T09:34:30;6.40;99.90
25328;DHT22;13279;51.300;12.394;2023-12-20T09:36:58;6.30;99.90
25328;DHT22;13279;51.300;12.394;2023-12-20T09:39:25;6.30;99.90
25328;DHT22;13279;51.300;12.394;2023-12-20T09:42:00;6.30;99.90
25328;DHT22;13279;51.300;12.394;2023-12-20T09:44:28;6.40;99.90
25328;DHT22;13279;51.300;12.394;2023-12-20T09:46:56;6.60;99.90
25328;DHT22;13279;51.300;12.394;2023-12-20T09:49:25;6.80;99.90
25328;DHT22;13279;51.300;12.394;2023-12-20T09:51:56;7.00;99.90
25328;DHT22;13279;51.300;12.394;2023-12-20T09:54:24;7.10;99.90
25328;DHT22;13279;51.300;12.394;2023-12-20T09:56:52;7.20;99.90
25328;DHT22;13279;51.300;12.394;2023-12-20T09:59:19;7.10;99.90
25328;DHT22;13279;51.300;12.394;2023-12-20T10:01:48;7.00;99.90
25328;DHT22;13279;51.300;12.394;2023-12-20T10:04:15;7.00;99.90
25328;DHT22;13279;51.300;12.394;2023-12-20T10:06:44;6.80;99.90
25328;DHT22;13279;51.300;12.394;2023-12-20T10:09:12;6.80;99.90
25328;DHT22;13279;51.300;12.394;2023-12-20T10:11:40;6.70;99.90
25328;DHT22;13279;51.300;12.394;2023-12-20T10:14:08;6.80;99.90
25328;DHT22;13279;51.300;12.394;2023-12-20T10:16:35;6.90;99.90
25328;DHT22;13279;51.300;12.394;2023-12-20T10:19:02;7.00;99.90
25328;DHT22;13279;51.300;12.394;2023-12-20T10:21:30;7.10;99.90
25328;DHT22;13279;51.300;12.394;2023-12-20T10:23:58;7.20;99.90
25328;DHT22;13279;51.300;12.394;2023-12-20T10:26:27;7.30;99.90
25328;DHT22;13279;51.300;12.394;2023-12-20T10:28:56;7.30;99.90
25328;DHT22;13279;51.300;12.394;2023-12-20T10:31:28;7.40;99.90
25328;DHT22;13279;51.300;12.394;2023-12-20T10:33:56;7.30;99.90
25328;DHT22;13279;51.300;12.394;2023-12-20T10:36:25;7.40;99.90
25328;DHT22;13279;51.300;12.394;2023-12-20T10:38:54;7.30;99.90
25328;DHT22;13279;51.300;12.394;2023-12-20T10:41:27;7.30;99.90
25328;DHT22;13279;51.300;12.394;2023-12-20T10:43:57;7.40;99.90
25328;DHT22;13279;51.300;12.394;2023-12-20T10:46:27;7.40;99.90
25328;DHT22;13279;51.300;12.394;2023-12-20T10:48:56;7.40;99.90
25328;DHT22;13279;51.300;12.394;2023-12-20T10:51:24;7.40;99.90
25328;DHT22;13279;51.300;12.394;2023-12-20T10:53:53;7.50;99.90
25328;DHT22;13279;51.300;12.394;2023-12-20T10:56:21;7.50;99.90
25328;DHT22;13279;51.300;12.394;2023-12-20T10:58:51;7.50;99.90
25328;DHT22;13279;51.300;12.394;2023-12-20T11:01:19;7.60;99.90
25328;DHT22;13279;51.300;12.394;2023-12-20T11:03:49;7.70;99.90
25328;DHT22;13279;51.300;12.394;2023-12-20T11:06:26;7.60;99.90
25328;DHT22;13279;51.300;12.394;2023-12-20T11:09:01;7.70;99.90
25328;DHT22;13279;51.300;12.394;2023-12-20T11:11:44;7.80;99.90
25328;DHT22;13279;51.300;12.394;2023-12-20T11:14:20;7.80;99.90
25328;DHT22;13279;51.300;12.394;2023-12-20T11:16:50;7.80;99.90
25328;DHT22;13279;51.300;12.394;2023-12-20T11:19:18;7.80;99.90
25328;DHT22;13279;51.300;12.394;2023-12-20T11:21:46;7.70;99.90
25328;DHT22;13279;51.300;12.394;2023-12-20T11:24:13;7.70;99.90
25328;DHT22;13279;51.300;12.394;2023-12-20T11:26:47;7.80;99.90
25328;DHT22;13279;51.300;12.394;2023-12-20T11:29:34;7.80;99.90
25328;DHT22;13279;51.300;12.394;2023-12-20T11:32:03;7.60;99.90
25328;DHT22;13279;51.300;12.394;2023-12-20T11:34:36;7.50;99.90
25328;DHT22;13279;51.300;12.394;2023-12-20T11:37:03;7.50;99.90
25328;DHT22;13279;51.300;12.394;2023-12-20T11:39:31;7.50;99.90
25328;DHT22;13279;51.300;12.394;2023-12-20T11:42:04;7.50;99.90
25328;DHT22;13279;51.300;12.394;2023-12-20T11:44:34;7.50;99.90
25328;DHT22;13279;51.300;12.394;2023-12-20T11:47:01;7.50;99.90
25328;DHT22;13279;51.300;12.394;2023-12-20T11:49:29;7.50;99.90
25328;DHT22;13279;51.300;12.394;2023-12-20T11:51:56;7.50;99.90
25328;DHT22;13279;51.300;12.394;2023-12-20T11:54:24;7.50;99.90
25328;DHT22;13279;51.300;12.394;2023-12-20T11:56:51;7.40;99.90
25328;DHT22;13279;51.300;12.394;2023-12-20T11:59:19;7.40;99.90
25328;DHT22;13279;51.300;12.394;2023-12-20T12:01:51;7.40;99.90
25328;DHT22;13279;51.300;12.394;2023-12-20T12:04:19;7.40;99.90
25328;DHT22;13279;51.300;12.394;2023-12-20T12:06:46;7.40;99.90
25328;DHT22;13279;51.300;12.394;2023-12-20T12:09:14;7.40;99.90
25328;DHT22;13279;51.300;12.394;2023-12-20T12:11:41;7.30;99.90
25328;DHT22;13279;51.300;12.394;2023-12-20T12:14:09;7.30;99.90
25328;DHT22;13279;51.300;12.394;2023-12-20T12:16:37;7.30;99.90
25328;DHT22;13279;51.300;12.394;2023-12-20T12:19:06;7.30;99.90
25328;DHT22;13279;51.300;12.394;2023-12-20T12:21:33;7.30;99.90
25328;DHT22;13279;51.300;12.394;2023-12-20T12:24:07;7.40;99.90
25328;DHT22;13279;51.300;12.394;2023-12-20T12:26:35;7.30;99.90
25328;DHT22;13279;51.300;12.394;2023-12-20T12:29:02;7.40;99.90
25328;DHT22;13279;51.300;12.394;2023-12-20T12:31:30;7.40;99.90
25328;DHT22;13279;51.300;12.394;2023-12-20T12:33:57;7.40;99.90
25328;DHT22;13279;51.300;12.394;2023-12-20T12:36:28;7.40;99.90
25328;DHT22;13279;51.300;12.394;2023-12-20T12:38:56;7.50;99.90
25328;DHT22;13279;51.300;12.394;2023-12-20T12:41:24;7.50;99.90
25328;DHT22;13279;51.300;12.394;2023-12-20T12:43:51;7.60;99.90
25328;DHT22;13279;51.300;12.394;2023-12-20T12:46:18;7.60;99.90
25328;DHT22;13279;51.300;12.394;2023-12-20T12:48:46;7.60;99.90
25328;DHT22;13279;51.300;12.394;2023-12-20T12:51:15;7.60;99.90
25328;DHT22;13279;51.300;12.394;2023-12-20T12:53:44;7.60;99.90
25328;DHT22;13279;51.300;12.394;2023-12-20T12:56:13;7.50;99.90
25328;DHT22;13279;51.300;12.394;2023-12-20T12:58:41;7.50;99.90
25328;DHT22;13279;51.300;12.394;2023-12-20T13:01:08;7.50;99.90
25328;DHT22;13279;51.300;12.394;2023-12-20T13:03:36;7.60;99.90
25328;DHT22;13279;51.300;12.394;2023-12-20T13:06:04;7.60;99.90
25328;DHT22;13279;51.300;12.394;2023-12-20T13:08:35;7.60;99.90
25328;DHT22;13279;51.300;12.394;2023-12-20T13:11:03;7.70;99.90
25328;DHT22;13279;51.300;12.394;2023-12-20T13:13:31;7.70;99.90
25328;DHT22;13279;51.300;12.394;2023-12-20T13:15:58;7.70;99.90
25328;DHT22;13279;51.300;12.394;2023-12-20T13:18:27;7.70;99.90
25328;DHT22;13279;51.300;12.394;2023-12-20T13:20:54;7.80;99.90
25328;DHT22;13279;51.300;12.394;2023-12-20T13:23:21;7.80;99.90
25328;DHT22;13279;51.300;12.394;2023-12-20T13:25:49;7.80;99.90
25328;DHT22;13279;51.300;12.394;2023-12-20T13:28:17;7.80;99.90
25328;DHT22;13279;51.300;12.394;2023-12-20T13:30:44;7.80;99.90
25328;DHT22;13279;51.300;12.394;2023-12-20T13:33:12;7.80;99.90
25328;DHT22;13279;51.300;12.394;2023-12-20T13:35:39;7.80;99.90
25328;DHT22;13279;51.300;12.394;2023-12-20T13:38:07;7.80;99.90
25328;DHT22;13279;51.300;12.394;2023-12-20T13:40:34;7.90;99.90
25328;DHT22;13279;51.300;12.394;2023-12-20T13:43:02;7.90;99.90
25328;DHT22;13279;51.300;12.394;2023-12-20T13:45:31;7.90;99.90
25328;DHT22;13279;51.300;12.394;2023-12-20T13:47:59;8.00;99.90
25328;DHT22;13279;51.300;12.394;2023-12-20T13:50:26;8.00;99.90
25328;DHT22;13279;51.300;12.394;2023-12-20T13:52:54;8.00;99.90
25328;DHT22;13279;51.300;12.394;2023-12-20T13:55:21;8.10;99.90
25328;DHT22;13279;51.300;12.394;2023-12-20T13:57:51;8.10;99.90
25328;DHT22;13279;51.300;12.394;2023-12-20T14:00:18;8.10;99.90
25328;DHT22;13279;51.300;12.394;2023-12-20T14:02:48;8.20;99.90
25328;DHT22;13279;51.300;12.394;2023-12-20T14:05:15;8.40;99.90
25328;DHT22;13279;51.300;12.394;2023-12-20T14:07:44;8.40;99.90
25328;DHT22;13279;51.300;12.394;2023-12-20T14:10:11;8.30;99.90
25328;DHT22;13279;51.300;12.394;2023-12-20T14:12:39;8.40;99.90
25328;DHT22;13279;51.300;12.394;2023-12-20T14:15:07;8.10;99.90
25328;DHT22;13279;51.300;12.394;2023-12-20T14:17:37;7.90;99.90
25328;DHT22;13279;51.300;12.394;2023-12-20T14:20:07;7.70;99.90
25328;DHT22;13279;51.300;12.394;2023-12-20T14:22:35;7.60;99.90
25328;DHT22;13279;51.300;12.394;2023-12-20T14:25:05;7.50;99.90
25328;DHT22;13279;51.300;12.394;2023-12-20T14:27:33;7.50;99.90
25328;DHT22;13279;51.300;12.394;2023-12-20T14:30:00;7.40;99.90
25328;DHT22;13279;51.300;12.394;2023-12-20T14:32:28;7.40;99.90
25328;DHT22;13279;51.300;12.394;2023-12-20T14:34:55;7.30;99.90
25328;DHT22;13279;51.300;12.394;2023-12-20T14:37:24;7.30;99.90
25328;DHT22;13279;51.300;12.394;2023-12-20T14:39:51;7.30;99.90
25328;DHT22;13279;51.300;12.394;2023-12-20T14:42:19;7.30;99.90
25328;DHT22;13279;51.300;12.394;2023-12-20T14:44:48;7.30;99.90
25328;DHT22;13279;51.300;12.394;2023-12-20T14:47:18;7.30;99.90
25328;DHT22;13279;51.300;12.394;2023-12-20T14:49:45;7.30;99.90
25328;DHT22;13279;51.300;12.394;2023-12-20T14:52:14;7.30;99.90
25328;DHT22;13279;51.300;12.394;2023-12-20T14:54:42;7.30;99.90
25328;DHT22;13279;51.300;12.394;2023-12-20T14:57:10;7.30;99.90
25328;DHT22;13279;51.300;12.394;2023-12-20T14:59:37;7.20;99.90
25328;DHT22;13279;51.300;12.394;2023-12-20T15:02:05;7.30;99.90
25328;DHT22;13279;51.300;12.394;2023-12-20T15:04:32;7.30;99.90
25328;DHT22;13279;51.300;12.394;2023-12-20T15:07:03;7.30;99.90
25328;DHT22;13279;51.300;12.394;2023-12-20T15:09:32;7.30;99.90
25328;DHT22;13279;51.300;12.394;2023-12-20T15:12:01;7.30;99.90
25328;DHT22;13279;51.300;12.394;2023-12-20T15:14:29;7.20;99.90
25328;DHT22;13279;51.300;12.394;2023-12-20T15:16:56;7.20;99.90
25328;DHT22;13279;51.300;12.394;2023-12-20T15:19:23;7.30;99.90
25328;DHT22;13279;51.300;12.394;2023-12-20T15:21:51;7.20;99.90
25328;DHT22;13279;51.300;12.394;2023-12-20T15:24:18;7.10;99.90
25328;DHT22;13279;51.300;12.394;2023-12-20T15:26:53;7.20;99.90
25328;DHT22;13279;51.300;12.394;2023-12-20T15:29:24;7.10;99.90
25328;DHT22;13279;51.300;12.394;2023-12-20T15:31:52;7.10;99.90
25328;DHT22;13279;51.300;12.394;2023-12-20T15:34:19;7.10;99.90
25328;DHT22;13279;51.300;12.394;2023-12-20T15:36:48;7.20;99.90